createdAt,value
2022-08-24T00:00:37.515Z,19.33
2022-08-24T00:03:04.746Z,19.30
2022-08-24T00:05:32.167Z,19.32
2022-08-24T00:07:59.273Z,19.27
2022-08-24T00:10:26.765Z,19.32
2022-08-24T00:12:53.848Z,19.31
2022-08-24T00:15:21.616Z,19.30
2022-08-24T00:17:48.600Z,19.29
2022-08-24T00:20:15.740Z,19.30
2022-08-24T00:22:43.298Z,19.27
2022-08-24T00:25:13.491Z,19.30
2022-08-24T00:27:45.218Z,19.28
2022-08-24T00:30:15.668Z,19.31
2022-08-24T00:32:44.618Z,19.33
2022-08-24T00:35:12.993Z,19.35
2022-08-24T00:37:41.005Z,19.38
2022-08-24T00:40:13.383Z,19.36
2022-08-24T00:42:41.161Z,19.36
2022-08-24T00:45:11.313Z,19.38
2022-08-24T00:47:47.864Z,19.49
2022-08-24T00:50:25.604Z,19.46
2022-08-24T00:53:03.055Z,19.45
2022-08-24T00:55:36.416Z,19.49
2022-08-24T00:58:11.279Z,19.45
2022-08-24T01:00:49.926Z,19.50
2022-08-24T01:03:17.338Z,19.51
2022-08-24T01:05:44.434Z,19.45
2022-08-24T01:08:13.756Z,19.46
2022-08-24T01:10:49.100Z,19.43
2022-08-24T01:13:16.515Z,19.52
2022-08-24T01:15:47.991Z,19.51
2022-08-24T01:18:37.885Z,19.51
2022-08-24T01:21:28.982Z,19.64
2022-08-24T01:23:59.859Z,19.50
2022-08-24T01:26:40.478Z,19.51
2022-08-24T01:29:11.630Z,19.47
2022-08-24T01:31:39.423Z,19.45
2022-08-24T01:34:06.976Z,19.44
2022-08-24T01:36:36.281Z,19.48
2022-08-24T01:39:11.762Z,19.42
2022-08-24T01:41:38.862Z,19.48
2022-08-24T01:44:06.104Z,19.60
2022-08-24T01:46:34.147Z,19.65
2022-08-24T01:49:02.407Z,19.67
2022-08-24T01:51:31.735Z,19.67
2022-08-24T01:54:02.534Z,19.65
2022-08-24T01:56:31.171Z,19.65
2022-08-24T01:58:59.518Z,19.55
2022-08-24T02:01:29.329Z,19.43
2022-08-24T02:03:59.307Z,19.36
2022-08-24T02:06:27.430Z,19.50
2022-08-24T02:08:54.508Z,19.51
2022-08-24T02:11:22.045Z,19.60
2022-08-24T02:13:49.009Z,19.67
2022-08-24T02:16:16.616Z,19.65
2022-08-24T02:18:43.695Z,19.67
2022-08-24T02:21:12.283Z,19.53
2022-08-24T02:23:41.688Z,19.44
2022-08-24T02:26:10.422Z,19.56
2022-08-24T02:28:38.851Z,19.59
2022-08-24T02:31:07.879Z,19.54
2022-08-24T02:33:36.393Z,19.54
2022-08-24T02:36:04.343Z,19.49
2022-08-24T02:38:52.006Z,19.59
2022-08-24T02:41:22.549Z,19.50
2022-08-24T02:43:49.938Z,19.47
2022-08-24T02:46:19.107Z,19.43
2022-08-24T02:48:46.214Z,19.40
2022-08-24T02:51:30.641Z,19.37
2022-08-24T02:54:08.140Z,19.39
2022-08-24T02:56:36.987Z,19.34
2022-08-24T02:59:04.234Z,19.35
2022-08-24T03:01:31.516Z,19.37
2022-08-24T03:03:58.745Z,19.39
2022-08-24T03:06:25.937Z,19.41
2022-08-24T03:08:56.290Z,19.43
2022-08-24T03:11:28.077Z,19.34
2022-08-24T03:13:59.268Z,19.37
2022-08-24T03:16:28.563Z,19.45
2022-08-24T03:18:56.098Z,19.48
2022-08-24T03:21:26.791Z,19.52
2022-08-24T03:23:54.332Z,19.57
2022-08-24T03:26:21.569Z,19.62
2022-08-24T03:28:49.700Z,19.56
2022-08-24T03:31:17.900Z,19.51
2022-08-24T03:33:46.748Z,19.47
2022-08-24T03:36:14.640Z,19.47
2022-08-24T03:38:43.162Z,19.52
2022-08-24T03:41:10.916Z,19.52
2022-08-24T03:43:48.850Z,19.59
2022-08-24T03:46:26.503Z,19.40
2022-08-24T03:48:57.930Z,19.27
2022-08-24T03:51:28.121Z,19.35
2022-08-24T03:53:57.330Z,19.35
2022-08-24T03:56:27.863Z,19.38
2022-08-24T03:58:55.671Z,19.33
2022-08-24T04:01:24.408Z,19.33
2022-08-24T04:03:54.392Z,19.37
2022-08-24T04:06:26.881Z,19.28
2022-08-24T04:08:54.342Z,19.33
2022-08-24T04:11:24.743Z,19.47
2022-08-24T04:13:56.741Z,19.53
2022-08-24T04:16:26.132Z,19.50
2022-08-24T04:19:07.985Z,19.53
2022-08-24T04:21:36.956Z,19.61
2022-08-24T04:24:08.942Z,19.63
2022-08-24T04:26:45.583Z,19.62
2022-08-24T04:29:19.608Z,19.58
2022-08-24T04:31:52.428Z,19.57
2022-08-24T04:34:20.572Z,19.68
2022-08-24T04:36:47.904Z,19.74
2022-08-24T04:39:15.842Z,19.74
2022-08-24T04:42:03.668Z,19.71
2022-08-24T04:44:36.415Z,19.62
2022-08-24T04:47:04.501Z,19.70
2022-08-24T04:49:31.582Z,19.73
2022-08-24T04:51:58.999Z,19.84
2022-08-24T04:54:27.537Z,19.84
2022-08-24T04:57:13.445Z,19.91
2022-08-24T04:59:44.086Z,19.95
2022-08-24T05:02:11.378Z,19.93
2022-08-24T05:04:38.670Z,19.95
2022-08-24T05:07:07.261Z,19.93
2022-08-24T05:09:34.530Z,19.97
2022-08-24T05:12:02.723Z,20.05
2022-08-24T05:14:34.544Z,20.04
2022-08-24T05:17:02.856Z,20.05
2022-08-24T05:19:31.091Z,20.16
2022-08-24T05:21:58.234Z,20.08
2022-08-24T05:24:25.705Z,20.11
2022-08-24T05:26:53.340Z,20.19
2022-08-24T05:29:21.835Z,20.22
2022-08-24T05:31:50.734Z,20.44
2022-08-24T05:34:21.839Z,20.54
2022-08-24T05:36:49.104Z,20.47
2022-08-24T05:39:36.012Z,20.53
2022-08-24T05:42:07.633Z,20.24
2022-08-24T05:44:38.349Z,20.20
2022-08-24T05:47:05.640Z,20.26
2022-08-24T05:49:32.698Z,20.14
2022-08-24T05:52:00.212Z,20.25
2022-08-24T05:54:27.337Z,20.46
2022-08-24T05:57:02.206Z,20.56
2022-08-24T05:59:31.780Z,20.64
2022-08-24T06:02:02.460Z,20.53
2022-08-24T06:04:29.825Z,20.73
2022-08-24T06:06:56.815Z,20.77
2022-08-24T06:09:24.422Z,20.57
2022-08-24T06:11:51.647Z,20.62
2022-08-24T06:14:21.896Z,20.71
2022-08-24T06:16:55.858Z,20.82
2022-08-24T06:19:23.290Z,21.00
2022-08-24T06:21:52.387Z,21.09
2022-08-24T06:24:41.252Z,20.93
2022-08-24T06:27:23.534Z,20.93
2022-08-24T06:29:57.294Z,20.90
2022-08-24T06:32:44.805Z,20.88
2022-08-24T06:35:32.191Z,20.73
2022-08-24T06:38:00.328Z,21.11
2022-08-24T06:40:28.088Z,21.23
2022-08-24T06:42:55.446Z,21.20
2022-08-24T06:45:33.913Z,21.44
2022-08-24T06:48:01.544Z,21.74
2022-08-24T06:50:28.880Z,21.52
2022-08-24T06:52:56.953Z,21.67
2022-08-24T06:55:27.577Z,21.49
2022-08-24T06:57:55.903Z,21.51
2022-08-24T07:00:23.116Z,21.72
2022-08-24T07:02:50.339Z,21.50
2022-08-24T07:05:18.414Z,21.70
2022-08-24T07:08:17.098Z,21.60
2022-08-24T07:10:46.088Z,21.46
2022-08-24T07:13:14.800Z,21.56
2022-08-24T07:15:45.525Z,21.89
2022-08-24T07:18:15.898Z,21.97
2022-08-24T07:20:47.314Z,21.67
2022-08-24T07:23:41.840Z,21.95
2022-08-24T07:26:20.818Z,21.75
2022-08-24T07:29:04.917Z,21.98
2022-08-24T07:31:39.834Z,21.80
2022-08-24T07:34:12.325Z,22.00
2022-08-24T07:36:44.701Z,22.28
2022-08-24T07:39:13.006Z,22.14
2022-08-24T07:42:02.527Z,22.36
2022-08-24T07:44:31.945Z,22.45
2022-08-24T07:47:07.248Z,22.54
2022-08-24T07:49:46.749Z,22.34
2022-08-24T07:52:14.068Z,22.70
2022-08-24T07:54:41.311Z,23.20
2022-08-24T07:57:08.871Z,22.54
2022-08-24T07:59:36.739Z,22.55
2022-08-24T08:02:05.335Z,22.39
2022-08-24T08:04:33.146Z,22.68
2022-08-24T08:07:03.395Z,22.39
2022-08-24T08:09:34.089Z,22.47
2022-08-24T08:12:01.227Z,22.15
2022-08-24T08:14:28.533Z,22.37
2022-08-24T08:16:56.303Z,22.38
2022-08-24T08:19:23.475Z,22.70
2022-08-24T08:22:11.543Z,22.43
2022-08-24T08:24:58.559Z,22.64
2022-08-24T08:27:25.807Z,22.90
2022-08-24T08:32:20.348Z,23.08
2022-08-24T08:34:50.130Z,23.03
2022-08-24T08:37:17.887Z,23.35
2022-08-24T08:39:45.421Z,23.13
2022-08-24T08:42:31.071Z,23.51
2022-08-24T08:45:27.296Z,24.03
2022-08-24T08:48:53.913Z,24.37
2022-08-24T08:51:39.485Z,24.77
2022-08-24T08:54:54.782Z,23.59
2022-08-24T08:57:47.061Z,24.22
2022-08-24T09:00:22.823Z,24.12
2022-08-24T09:03:27.112Z,23.64
2022-08-24T09:06:32.315Z,24.19
2022-08-24T09:09:15.548Z,24.70
2022-08-24T09:11:57.503Z,24.49
2022-08-24T09:14:43.325Z,24.25
2022-08-24T09:17:22.320Z,24.21
2022-08-24T09:20:27.556Z,24.88
2022-08-24T09:23:18.811Z,25.15
2022-08-24T09:26:17.290Z,24.95
2022-08-24T09:29:02.325Z,24.98
2022-08-24T09:31:39.023Z,25.05
2022-08-24T09:34:29.137Z,24.52
2022-08-24T09:37:21.045Z,24.62
2022-08-24T09:40:03.877Z,24.93
2022-08-24T09:42:54.285Z,25.49
2022-08-24T09:45:32.086Z,25.92
2022-08-24T09:48:15.708Z,25.70
2022-08-24T09:51:08.883Z,25.54
2022-08-24T09:53:47.977Z,25.58
2022-08-24T09:56:26.679Z,25.37
2022-08-24T09:59:12.623Z,25.66
2022-08-24T10:01:54.526Z,25.73
2022-08-24T10:04:39.484Z,25.76
2022-08-24T10:07:50.624Z,26.00
2022-08-24T10:10:33.253Z,25.38
2022-08-24T10:13:19.754Z,25.31
2022-08-24T10:16:20.605Z,25.66
2022-08-24T10:19:01.427Z,26.02
2022-08-24T10:22:12.673Z,25.52
2022-08-24T10:24:47.098Z,25.97
2022-08-24T10:27:36.103Z,26.08
2022-08-24T10:30:25.932Z,26.74
2022-08-24T10:33:19.659Z,27.09
2022-08-24T10:35:58.901Z,27.26
2022-08-24T10:39:09.365Z,27.03
2022-08-24T10:41:55.574Z,26.65
2022-08-24T10:44:40.917Z,26.27
2022-08-24T10:47:31.070Z,26.38
2022-08-24T10:50:30.818Z,26.45
2022-08-24T10:53:17.412Z,26.43
2022-08-24T10:55:44.940Z,26.12
2022-08-24T10:58:31.312Z,25.96
2022-08-24T11:01:13.782Z,26.65
2022-08-24T11:03:52.048Z,26.86
2022-08-24T11:06:20.686Z,27.09
2022-08-24T11:09:08.515Z,26.94
2022-08-24T11:11:47.074Z,27.16
2022-08-24T11:14:38.298Z,27.17
2022-08-24T11:17:17.708Z,26.82
2022-08-24T11:19:45.540Z,27.04
2022-08-24T11:22:37.155Z,27.04
2022-08-24T11:25:36.897Z,26.29
2022-08-24T11:28:18.318Z,26.28
2022-08-24T11:30:45.389Z,26.36
2022-08-24T11:33:27.225Z,26.45
2022-08-24T11:35:54.590Z,26.38
2022-08-24T11:38:26.490Z,26.25
2022-08-24T11:40:57.414Z,26.07
2022-08-24T11:43:56.802Z,26.10
2022-08-24T11:46:59.437Z,26.44
2022-08-24T11:50:04.261Z,26.66
2022-08-24T11:52:52.034Z,26.69
2022-08-24T11:55:25.051Z,27.13
2022-08-24T11:58:02.477Z,27.48
2022-08-24T12:00:56.189Z,27.03
2022-08-24T12:03:52.484Z,26.18
2022-08-24T12:06:41.607Z,25.91
2022-08-24T12:09:35.884Z,26.19
2022-08-24T12:12:30.781Z,26.83
2022-08-24T12:15:06.041Z,27.06
2022-08-24T12:17:41.860Z,27.02
2022-08-24T12:20:27.462Z,26.88
2022-08-24T12:23:00.814Z,26.82
2022-08-24T12:26:06.341Z,26.91
2022-08-24T12:28:41.466Z,26.76
2022-08-24T12:31:19.211Z,27.05
2022-08-24T12:33:52.738Z,27.33
2022-08-24T12:36:32.205Z,27.52
2022-08-24T12:39:10.829Z,27.66
2022-08-24T12:41:48.442Z,27.12
2022-08-24T12:44:17.243Z,26.82
2022-08-24T12:46:53.338Z,26.62
2022-08-24T12:49:38.479Z,26.98
2022-08-24T12:52:31.395Z,27.05
2022-08-24T12:55:29.401Z,27.06
2022-08-24T13:01:06.386Z,27.18
2022-08-24T13:03:37.689Z,27.27
2022-08-24T13:06:17.315Z,27.48
2022-08-24T13:08:50.961Z,27.35
2022-08-24T13:11:24.245Z,27.42
2022-08-24T13:13:57.534Z,27.53
2022-08-24T13:16:58.019Z,27.10
2022-08-24T13:19:31.401Z,27.38
2022-08-24T13:22:10.456Z,27.56
2022-08-24T13:24:42.324Z,27.72
2022-08-24T13:27:12.393Z,28.30
2022-08-24T13:30:06.745Z,28.58
2022-08-24T13:32:45.536Z,27.86
2022-08-24T13:35:40.591Z,27.49
2022-08-24T13:38:35.465Z,27.17
2022-08-24T13:41:08.108Z,27.26
2022-08-24T13:43:44.725Z,27.51
2022-08-24T13:46:23.685Z,27.27
2022-08-24T13:49:19.935Z,27.24
2022-08-24T13:52:06.479Z,27.62
2022-08-24T13:54:55.574Z,27.70
2022-08-24T13:57:28.626Z,27.46
2022-08-24T14:00:13.016Z,27.51
2022-08-24T14:02:52.256Z,27.74
2022-08-24T14:05:43.862Z,27.60
2022-08-24T14:08:13.639Z,27.54
2022-08-24T14:10:59.221Z,27.97
2022-08-24T14:13:41.440Z,28.18
2022-08-24T14:17:05.019Z,27.96
2022-08-24T14:19:49.326Z,28.07
2022-08-24T14:22:36.217Z,28.23
2022-08-24T14:25:25.268Z,27.98
2022-08-24T14:28:12.648Z,27.88
2022-08-24T14:30:43.098Z,27.47
2022-08-24T14:33:20.289Z,27.20
2022-08-24T14:36:02.763Z,27.31
2022-08-24T14:38:41.934Z,27.14
2022-08-24T14:41:35.103Z,27.25
2022-08-24T14:44:13.177Z,27.56
2022-08-24T14:46:52.409Z,27.69
2022-08-24T14:49:25.879Z,27.76
2022-08-24T14:52:00.519Z,27.55
2022-08-24T14:54:33.567Z,27.18
2022-08-24T14:57:58.049Z,27.33
2022-08-24T15:00:47.008Z,27.58
2022-08-24T15:03:52.042Z,28.11
2022-08-24T15:06:37.592Z,27.91
2022-08-24T15:09:19.755Z,27.94
2022-08-24T15:11:51.201Z,27.76
2022-08-24T15:14:40.203Z,27.52
2022-08-24T15:17:15.938Z,27.72
2022-08-24T15:19:56.304Z,27.91
2022-08-24T15:22:45.961Z,28.21
2022-08-24T15:25:37.156Z,28.10
2022-08-24T15:28:24.224Z,28.23
2022-08-24T15:31:11.247Z,27.79
2022-08-24T15:33:58.428Z,27.49
2022-08-24T15:36:26.349Z,27.50
2022-08-24T15:38:53.398Z,28.21
2022-08-24T15:41:28.870Z,29.09
2022-08-24T15:44:04.481Z,30.00
2022-08-24T15:46:33.377Z,29.88
2022-08-24T15:49:15.672Z,29.46
2022-08-24T15:51:42.672Z,28.46
2022-08-24T15:54:43.545Z,28.29
2022-08-24T15:57:27.978Z,28.22
2022-08-24T16:00:07.493Z,27.76
2022-08-24T16:02:38.963Z,27.46
2022-08-24T16:05:36.012Z,27.44
2022-08-24T16:08:03.438Z,27.63
2022-08-24T16:10:46.660Z,27.99
2022-08-24T16:13:19.306Z,28.27
2022-08-24T16:15:59.706Z,29.22
2022-08-24T16:18:42.993Z,29.60
2022-08-24T16:21:28.448Z,29.00
2022-08-24T16:24:04.079Z,27.98
2022-08-24T16:26:54.115Z,28.94
2022-08-24T16:29:39.286Z,29.01
2022-08-24T16:32:32.709Z,28.60
2022-08-24T16:35:19.761Z,28.05
2022-08-24T16:37:47.006Z,27.48
2022-08-24T16:40:14.303Z,27.24
2022-08-24T16:42:41.914Z,27.05
2022-08-24T16:45:11.293Z,26.85
2022-08-24T16:47:38.422Z,26.62
2022-08-24T16:50:07.126Z,26.56
2022-08-24T16:52:34.431Z,26.34
2022-08-24T16:55:01.712Z,26.23
2022-08-24T16:57:36.436Z,26.16
2022-08-24T17:00:10.976Z,26.10
2022-08-24T17:02:38.383Z,25.95
2022-08-24T17:05:05.899Z,25.84
2022-08-24T17:07:33.124Z,25.72
2022-08-24T17:10:03.130Z,25.68
2022-08-24T17:12:31.436Z,25.60
2022-08-24T17:14:58.942Z,25.61
2022-08-24T17:17:26.231Z,25.68
2022-08-24T17:19:54.544Z,25.65
2022-08-24T17:22:23.675Z,26.10
2022-08-24T17:24:51.859Z,26.28
2022-08-24T17:27:23.877Z,26.20
2022-08-24T17:29:51.317Z,26.04
2022-08-24T17:32:18.676Z,25.84
2022-08-24T17:34:45.776Z,25.83
2022-08-24T17:37:12.837Z,25.73
2022-08-24T17:39:39.925Z,25.59
2022-08-24T17:42:20.906Z,25.53
2022-08-24T17:44:55.115Z,25.49
2022-08-24T17:47:22.457Z,25.39
2022-08-24T17:49:49.463Z,25.32
2022-08-24T17:52:16.712Z,25.29
2022-08-24T17:54:43.680Z,25.21
2022-08-24T17:57:13.204Z,25.22
2022-08-24T17:59:40.981Z,25.10
2022-08-24T18:02:12.507Z,25.04
2022-08-24T18:04:40.455Z,25.00
2022-08-24T18:07:35.880Z,24.94
2022-08-24T18:10:08.943Z,24.89
2022-08-24T18:12:36.095Z,24.87
2022-08-24T18:15:03.800Z,24.78
2022-08-24T18:17:38.254Z,24.74
2022-08-24T18:20:08.668Z,24.69
2022-08-24T18:22:36.135Z,24.61
2022-08-24T18:25:03.220Z,24.64
2022-08-24T18:27:32.767Z,24.56
2022-08-24T18:30:03.194Z,24.51
2022-08-24T18:32:31.105Z,24.50
2022-08-24T18:34:58.614Z,24.58
2022-08-24T18:37:25.801Z,24.49
2022-08-24T18:39:52.872Z,24.44
2022-08-24T18:42:27.446Z,24.27
2022-08-24T18:44:55.107Z,24.20
2022-08-24T18:47:22.157Z,24.28
2022-08-24T18:49:49.300Z,24.27
2022-08-24T18:52:19.704Z,24.18
2022-08-24T18:54:49.437Z,24.12
2022-08-24T18:57:18.016Z,24.13
2022-08-24T18:59:45.722Z,24.18
2022-08-24T19:02:33.487Z,24.11
2022-08-24T19:05:08.895Z,24.10
2022-08-24T19:07:41.275Z,24.18
2022-08-24T19:10:17.327Z,24.18
2022-08-24T19:12:50.357Z,24.10
2022-08-24T19:15:32.142Z,24.09
2022-08-24T19:18:05.963Z,24.17
2022-08-24T19:20:34.530Z,24.05
2022-08-24T19:23:08.839Z,24.03
2022-08-24T19:25:37.046Z,24.00
2022-08-24T19:28:04.819Z,23.98
2022-08-24T19:30:31.984Z,23.97
2022-08-24T19:33:00.583Z,24.01
2022-08-24T19:35:28.302Z,23.96
2022-08-24T19:37:55.466Z,23.86
2022-08-24T19:40:22.565Z,23.90
2022-08-24T19:42:54.461Z,23.94
2022-08-24T19:45:45.183Z,23.94
2022-08-24T19:48:13.414Z,23.90
2022-08-24T19:50:41.166Z,23.76
2022-08-24T19:53:10.387Z,23.69
2022-08-24T19:55:37.580Z,23.64
2022-08-24T19:58:29.926Z,23.66
2022-08-24T20:01:24.197Z,23.64
2022-08-24T20:03:51.968Z,23.69
2022-08-24T20:06:21.450Z,23.75
2022-08-24T20:08:48.675Z,23.73
2022-08-24T20:11:16.475Z,23.74
2022-08-24T20:13:43.893Z,23.69
2022-08-24T20:16:15.907Z,23.67
2022-08-24T20:18:43.345Z,23.59
2022-08-24T20:21:10.605Z,23.55
2022-08-24T20:23:38.217Z,23.56
2022-08-24T20:26:07.265Z,23.45
2022-08-24T20:28:40.251Z,23.33
2022-08-24T20:31:08.520Z,23.40
2022-08-24T20:33:35.919Z,23.43
2022-08-24T20:36:03.393Z,23.49
2022-08-24T20:38:31.912Z,23.61
2022-08-24T20:40:59.689Z,23.71
2022-08-24T20:43:27.255Z,23.76
2022-08-24T20:45:54.653Z,23.70
2022-08-24T20:48:29.041Z,23.79
2022-08-24T20:50:57.055Z,23.82
2022-08-24T20:53:24.147Z,23.82
2022-08-24T20:55:51.283Z,23.82
2022-08-24T20:58:22.250Z,23.84
2022-08-24T21:00:50.063Z,23.87
2022-08-24T21:03:18.854Z,23.79
2022-08-24T21:05:48.834Z,23.78
2022-08-24T21:08:15.983Z,23.75
2022-08-24T21:10:43.330Z,23.64
2022-08-24T21:13:11.174Z,23.65
2022-08-24T21:15:39.330Z,23.63
2022-08-24T21:18:06.435Z,23.56
2022-08-24T21:20:33.552Z,23.50
2022-08-24T21:23:00.671Z,23.55
2022-08-24T21:25:27.898Z,23.55
2022-08-24T21:27:55.207Z,23.51
2022-08-24T21:30:23.117Z,23.45
2022-08-24T21:33:09.322Z,23.36
2022-08-24T21:35:37.366Z,23.32
2022-08-24T21:38:05.520Z,23.21
2022-08-24T21:40:36.344Z,23.24
2022-08-24T21:43:14.538Z,23.22
2022-08-24T21:45:45.158Z,23.17
2022-08-24T21:48:13.145Z,22.98
2022-08-24T21:50:40.289Z,23.00
2022-08-24T21:53:07.645Z,23.12
2022-08-24T21:55:35.876Z,23.05
2022-08-24T21:58:02.980Z,23.04
2022-08-24T22:00:34.908Z,23.08
2022-08-24T22:03:04.951Z,23.14
2022-08-24T22:05:32.338Z,23.12
2022-08-24T22:07:59.660Z,23.18
2022-08-24T22:10:27.100Z,23.33
2022-08-24T22:12:54.983Z,23.33
2022-08-24T22:15:23.271Z,23.40
2022-08-24T22:17:52.965Z,23.46
2022-08-24T22:20:21.661Z,23.47
2022-08-24T22:22:50.729Z,23.45
2022-08-24T22:25:18.097Z,23.49
2022-08-24T22:27:46.931Z,23.40
2022-08-24T22:30:17.589Z,23.41
2022-08-24T22:32:46.420Z,23.41
2022-08-24T22:35:14.457Z,23.43
2022-08-24T22:37:42.054Z,23.43
2022-08-24T22:40:12.470Z,23.40
2022-08-24T22:42:40.546Z,23.32
2022-08-24T22:45:12.260Z,23.31
2022-08-24T22:47:39.382Z,23.23
2022-08-24T22:50:07.432Z,23.19
2022-08-24T22:52:34.560Z,23.14
2022-08-24T22:55:01.937Z,23.10
2022-08-24T22:57:29.194Z,23.20
2022-08-24T22:59:57.785Z,23.35
2022-08-24T23:02:24.874Z,23.32
2022-08-24T23:04:53.007Z,23.27
2022-08-24T23:07:20.471Z,23.16
2022-08-24T23:09:48.142Z,23.05
2022-08-24T23:12:22.589Z,23.01
2022-08-24T23:14:51.795Z,23.01
2022-08-24T23:17:19.787Z,23.17
2022-08-24T23:20:05.109Z,23.30
2022-08-24T23:22:36.583Z,23.20
2022-08-24T23:25:05.679Z,23.24
2022-08-24T23:27:37.564Z,23.23
2022-08-24T23:30:10.001Z,23.14
2022-08-24T23:32:37.021Z,23.21
2022-08-24T23:35:04.455Z,23.21
2022-08-24T23:37:31.504Z,23.15
2022-08-24T23:39:58.846Z,23.13
2022-08-24T23:42:25.868Z,23.12
2022-08-24T23:44:53.252Z,22.86
2022-08-24T23:47:21.143Z,22.79
2022-08-24T23:49:48.087Z,22.76
2022-08-24T23:52:28.750Z,22.76
2022-08-24T23:55:18.207Z,22.78
2022-08-24T23:57:46.556Z,22.75
